Time;durP1;ratioP1;P1;durP2;ratioP2;P2;SDS_P1;SDS_P2;PMS_P1;PMS_P2;Temp;Humidity;BMP_temperature;BMP_pressure;BME280_temperature;BME280_humidity;BME280_pressure;Samples;Min_cycle;Max_cycle;Signal;HPM_P1;HPM_P2
2023/06/16 00:01:22;;;;;;;;;;;;;;;27.00;39.17;100300.16;5076617;28;1454;-19
2023/06/16 00:03:49;;;;;;;;;;;;;;;27.05;38.93;100298.75;5075858;28;1178;-20
2023/06/16 00:06:15;;;;;;;;;;;;;;;27.06;39.02;100295.06;5076783;28;1965;-20
2023/06/16 00:08:40;;;;;;;;;;;;;;;27.07;38.75;100294.00;5095504;28;1146;-19
2023/06/16 00:11:06;;;;;;;;;;;;;;;26.98;38.83;100286.03;5096575;28;1168;-21
2023/06/16 00:13:31;;;;;;;;;;;;;;;26.99;38.82;100294.97;5083199;28;1269;-19
2023/06/16 00:15:57;;;;;;;;;;;;;;;27.04;38.79;100286.31;5085050;28;1098;-20
2023/06/16 00:18:23;;;;;;;;;;;;;;;26.96;38.96;100277.28;5088365;28;1062;-20
2023/06/16 00:20:51;;;;;;;;;;;;;;;26.97;38.96;100280.81;5085317;28;1059;-21
2023/06/16 00:23:23;;;;;;;;;;;;;;;26.97;38.62;100273.56;5076199;28;1178;-19
2023/06/16 00:25:48;;;;;;;;;;;;;;;26.94;38.69;100275.81;5088325;28;1969;-19
2023/06/16 00:28:14;;;;;;;;;;;;;;;27.04;38.37;100280.91;5078010;28;1137;-19
2023/06/16 00:30:39;;;;;;;;;;;;;;;27.14;38.64;100286.81;5078330;28;836;-19
2023/06/16 00:33:05;;;;;;;;;;;;;;;26.99;38.66;100284.97;5076488;28;1031;-19
2023/06/16 00:35:31;;;;;;;;;;;;;;;26.96;38.26;100284.56;5088798;28;1083;-19
2023/06/16 00:37:57;;;;;;;;;;;;;;;26.95;38.51;100282.88;5059374;28;1174;-19
2023/06/16 00:40:22;;;;;;;;;;;;;;;26.95;38.68;100282.88;5076516;28;1186;-20
2023/06/16 00:42:48;;;;;;;;;;;;;;;27.03;38.40;100271.97;5089294;28;1149;-19
2023/06/16 00:45:13;;;;;;;;;;;;;;;26.95;38.53;100275.63;5070125;28;2125;-20
2023/06/16 00:47:39;;;;;;;;;;;;;;;26.90;38.19;100275.34;5096369;28;1996;-19
2023/06/16 00:50:05;;;;;;;;;;;;;;;27.00;38.05;100277.72;5078232;28;2419;-20
2023/06/16 00:52:31;;;;;;;;;;;;;;;27.04;38.27;100278.22;5076882;28;1094;-20
2023/06/16 00:54:56;;;;;;;;;;;;;;;26.97;38.44;100272.72;5088753;28;828;-19
2023/06/16 00:57:22;;;;;;;;;;;;;;;26.95;38.51;100270.22;5059356;28;1030;-19
2023/06/16 00:59:48;;;;;;;;;;;;;;;26.85;38.83;100273.25;5076114;28;1039;-20
2023/06/16 01:02:13;;;;;;;;;;;;;;;26.90;38.39;100270.78;5057851;28;2050;-20
2023/06/16 01:04:40;;;;;;;;;;;;;;;26.78;38.94;100261.53;5076112;28;1182;-19
2023/06/16 01:07:09;;;;;;;;;;;;;;;26.89;38.41;100257.50;5068463;28;1984;-20
2023/06/16 01:09:49;;;;;;;;;;;;;;;26.94;37.89;100260.47;5093404;28;1070;-20
2023/06/16 01:12:21;;;;;;;;;;;;;;;26.87;38.35;100251.44;5080147;28;1161;-20
2023/06/16 01:14:47;;;;;;;;;;;;;;;26.89;38.07;100252.91;5079951;28;1123;-19
2023/06/16 01:17:12;;;;;;;;;;;;;;;26.98;37.91;100245.53;5061672;28;1218;-20
2023/06/16 01:19:40;;;;;;;;;;;;;;;26.88;38.28;100261.22;5062222;28;893;-20
2023/06/16 01:22:09;;;;;;;;;;;;;;;26.90;37.98;100259.16;5073898;28;1225;-19
2023/06/16 01:24:35;;;;;;;;;;;;;;;26.98;38.22;100261.72;5061462;28;1206;-20
2023/06/16 01:27:01;;;;;;;;;;;;;;;26.96;37.59;100261.06;5070639;28;1918;-19
2023/06/16 01:29:28;;;;;;;;;;;;;;;27.04;37.86;100262.00;5067844;28;1157;-19
2023/06/16 01:31:54;;;;;;;;;;;;;;;27.02;37.87;100257.66;5073043;28;1022;-19
2023/06/16 01:34:20;;;;;;;;;;;;;;;27.02;37.81;100257.66;5079419;28;1098;-19
2023/06/16 01:36:45;;;;;;;;;;;;;;;27.15;37.58;100261.47;5081306;28;1078;-19
2023/06/16 01:39:11;;;;;;;;;;;;;;;26.97;37.57;100260.06;5086486;28;1236;-20
2023/06/16 01:41:36;;;;;;;;;;;;;;;27.01;37.45;100269.47;5073979;28;1965;-20
2023/06/16 01:44:02;;;;;;;;;;;;;;;26.97;37.77;100265.47;5066599;28;1193;-19
2023/06/16 01:46:28;;;;;;;;;;;;;;;27.13;37.37;100266.22;5079433;28;1977;-19
2023/06/16 01:48:53;;;;;;;;;;;;;;;27.11;37.94;100262.91;5092785;28;1059;-18
2023/06/16 01:51:20;;;;;;;;;;;;;;;27.04;37.45;100264.72;5086965;28;1118;-19
2023/06/16 01:53:45;;;;;;;;;;;;;;;27.06;37.74;100262.66;5080040;28;1209;-20
2023/06/16 01:56:12;;;;;;;;;;;;;;;27.14;37.37;100265.22;5057042;28;1153;-19
2023/06/16 01:58:38;;;;;;;;;;;;;;;27.07;37.58;100262.47;5062098;28;1143;-19
2023/06/16 02:01:05;;;;;;;;;;;;;;;27.13;37.13;100263.53;5091438;28;1033;-19
2023/06/16 02:03:45;;;;;;;;;;;;;;;27.05;37.12;100264.50;5076348;28;1122;-20
2023/06/16 02:06:14;;;;;;;;;;;;;;;26.89;37.73;100269.09;5062496;28;1905;-20
2023/06/16 02:08:40;;;;;;;;;;;;;;;26.98;37.57;100272.53;5064394;28;1137;-20
2023/06/16 02:11:05;;;;;;;;;;;;;;;26.84;37.98;100268.03;5077913;28;1167;-19
2023/06/16 02:13:31;;;;;;;;;;;;;;;26.75;37.96;100270.88;5074110;28;1126;-20
2023/06/16 02:15:56;;;;;;;;;;;;;;;26.81;37.95;100277.34;5058701;28;1229;-20
2023/06/16 02:18:27;;;;;;;;;;;;;;;26.94;37.83;100275.81;5056497;28;1326;-19
2023/06/16 02:20:53;;;;;;;;;;;;;;;26.89;37.87;100273.69;5058890;28;1038;-19
2023/06/16 02:23:19;;;;;;;;;;;;;;;26.85;37.68;100267.84;5058666;28;1024;-19
2023/06/16 02:25:44;;;;;;;;;;;;;;;26.97;37.81;100262.75;5068432;28;1067;-20
2023/06/16 02:28:10;;;;;;;;;;;;;;;26.89;37.38;100263.72;5065035;28;1906;-19
2023/06/16 02:30:35;;;;;;;;;;;;;;;26.79;38.32;100255.13;5071633;28;1166;-20
2023/06/16 02:33:01;;;;;;;;;;;;;;;26.90;37.20;100254.59;5065441;28;1137;-19
2023/06/16 02:35:27;;;;;;;;;;;;;;;26.72;37.55;100254.22;5065365;28;1277;-19
2023/06/16 02:37:53;;;;;;;;;;;;;;;26.81;38.06;100254.94;5058602;28;1101;-19
2023/06/16 02:40:19;;;;;;;;;;;;;;;26.85;37.86;100253.50;5056806;28;1167;-19
2023/06/16 02:42:45;;;;;;;;;;;;;;;26.74;37.99;100247.59;5058200;28;1239;-19
2023/06/16 02:45:10;;;;;;;;;;;;;;;26.74;38.18;100254.88;5056931;28;1099;-19
2023/06/16 02:47:36;;;;;;;;;;;;;;;26.76;37.91;100259.03;5056942;28;1963;-19
2023/06/16 02:50:04;;;;;;;;;;;;;;;26.78;37.56;100254.28;5056912;28;1264;-20
2023/06/16 02:52:30;;;;;;;;;;;;;;;26.77;37.26;100255.31;5056672;28;1121;-20
2023/06/16 02:54:56;;;;;;;;;;;;;;;26.85;37.26;100257.03;5068281;28;1392;-20
2023/06/16 02:57:27;;;;;;;;;;;;;;;26.78;37.49;100256.97;5056795;28;1465;-20
2023/06/16 02:59:55;;;;;;;;;;;;;;;26.71;37.51;100258.78;5069258;28;1195;-19
2023/06/16 03:02:21;;;;;;;;;;;;;;;26.81;36.97;100255.75;5064252;28;1154;-19
2023/06/16 03:04:55;;;;;;;;;;;;;;;26.75;37.29;100251.13;5079865;28;1130;-20
2023/06/16 03:07:24;;;;;;;;;;;;;;;26.76;37.61;100250.09;5071341;28;1961;-19
2023/06/16 03:09:50;;;;;;;;;;;;;;;26.70;37.99;100253.56;5074233;28;1266;-20
2023/06/16 03:12:18;;;;;;;;;;;;;;;26.68;38.14;100253.75;5079749;28;1334;-20
2023/06/16 03:14:56;;;;;;;;;;;;;;;26.65;40.75;100252.28;5066584;28;1303;-18
2023/06/16 03:17:21;;;;;;;;;;;;;;;25.96;43.50;100257.06;5069379;28;1158;-18
2023/06/16 03:19:48;;;;;;;;;;;;;;;26.02;43.76;100258.19;5074319;28;1617;-18
2023/06/16 03:22:15;;;;;;;;;;;;;;;25.84;45.38;100263.94;5079379;28;1312;-18
2023/06/16 03:24:43;;;;;;;;;;;;;;;25.77;45.84;100256.63;5063391;28;1205;-19
2023/06/16 03:27:09;;;;;;;;;;;;;;;25.55;46.71;100250.25;5058965;28;1906;-18
2023/06/16 03:30:01;;;;;;;;;;;;;;;26.20;43.18;100254.25;5081597;28;1294;-17
2023/06/16 03:32:38;;;;;;;;;;;;;;;25.92;45.27;100253.06;5065812;28;1518;-18
2023/06/16 03:35:04;;;;;;;;;;;;;;;25.77;45.98;100250.38;5070489;28;1272;-18
2023/06/16 03:37:31;;;;;;;;;;;;;;;25.10;49.50;100252.88;5072294;28;1122;-18
2023/06/16 03:39:57;;;;;;;;;;;;;;;24.96;49.69;100244.56;5068027;28;1263;-18
2023/06/16 03:42:22;;;;;;;;;;;;;;;24.26;51.70;100247.16;5065492;28;1369;-18
2023/06/16 03:44:49;;;;;;;;;;;;;;;23.78;53.16;100239.94;5070107;28;1138;-17
2023/06/16 03:47:16;;;;;;;;;;;;;;;23.69;54.10;100239.16;5090452;28;1898;-18
2023/06/16 03:49:42;;;;;;;;;;;;;;;23.08;55.19;100241.22;5058820;28;1209;-17
2023/06/16 03:52:08;;;;;;;;;;;;;;;23.24;54.59;100240.38;5059136;28;1178;-17
2023/06/16 03:54:36;;;;;;;;;;;;;;;22.96;55.42;100242.56;5059060;28;1228;-17
2023/06/16 03:57:02;;;;;;;;;;;;;;;22.64;56.66;100228.94;5065438;28;1362;-18
2023/06/16 03:59:29;;;;;;;;;;;;;;;22.34;58.24;100234.72;5068687;28;1502;-17
2023/06/16 04:01:57;;;;;;;;;;;;;;;23.44;55.89;100234.66;5075184;28;1102;-19
2023/06/16 04:04:27;;;;;;;;;;;;;;;25.50;49.14;100239.19;5064914;28;1570;-19
2023/06/16 04:06:53;;;;;;;;;;;;;;;26.09;48.07;100248.28;5072217;28;1890;-18
2023/06/16 04:09:20;;;;;;;;;;;;;;;26.37;46.75;100241.41;5058856;28;1268;-18
2023/06/16 04:11:46;;;;;;;;;;;;;;;26.51;45.82;100248.59;5074837;28;1123;-19
2023/06/16 04:14:12;;;;;;;;;;;;;;;26.75;45.81;100248.44;5075077;28;1074;-19
2023/06/16 04:16:40;;;;;;;;;;;;;;;26.59;45.10;100244.94;5059037;28;1062;-19
2023/06/16 04:19:06;;;;;;;;;;;;;;;26.79;44.64;100247.03;5074585;28;1438;-19
2023/06/16 04:21:32;;;;;;;;;;;;;;;26.61;45.78;100248.28;5059337;28;1213;-19
2023/06/16 04:23:58;;;;;;;;;;;;;;;26.25;46.51;100241.88;5068088;28;1689;-18
2023/06/16 04:26:26;;;;;;;;;;;;;;;26.41;45.28;100240.84;5057582;28;1902;-19
2023/06/16 04:28:55;;;;;;;;;;;;;;;26.25;45.44;100239.19;5055182;28;1337;-19
2023/06/16 04:31:28;;;;;;;;;;;;;;;26.58;44.79;100231.66;5059015;28;1225;-18
2023/06/16 04:33:56;;;;;;;;;;;;;;;26.33;45.74;100224.78;5068038;28;1253;-18
2023/06/16 04:36:22;;;;;;;;;;;;;;;26.37;45.61;100225.22;5054918;28;1945;-18
2023/06/16 04:38:48;;;;;;;;;;;;;;;26.59;45.25;100228.75;5054889;28;1155;-19
2023/06/16 04:41:14;;;;;;;;;;;;;;;26.69;44.82;100227.63;5054424;28;1288;-19
2023/06/16 04:43:41;;;;;;;;;;;;;;;26.65;44.95;100225.31;5068168;28;1234;-18
2023/06/16 04:46:06;;;;;;;;;;;;;;;26.63;44.27;100221.13;5055232;28;1973;-19
2023/06/16 04:48:32;;;;;;;;;;;;;;;26.65;44.41;100221.78;5058963;28;1111;-18
2023/06/16 04:50:58;;;;;;;;;;;;;;;26.67;44.59;100224.28;5076308;28;1002;-19
2023/06/16 04:53:24;;;;;;;;;;;;;;;26.76;44.35;100221.25;5074829;28;1178;-18
2023/06/16 04:55:49;;;;;;;;;;;;;;;26.76;44.37;100223.09;5068221;28;1181;-19
2023/06/16 04:58:15;;;;;;;;;;;;;;;27.06;42.71;100214.06;5072854;28;1077;-18
2023/06/16 05:00:40;;;;;;;;;;;;;;;26.87;43.37;100216.38;5057728;28;1326;-19
2023/06/16 05:03:06;;;;;;;;;;;;;;;26.84;43.11;100212.19;5054819;28;1287;-18
2023/06/16 05:05:32;;;;;;;;;;;;;;;26.86;43.59;100209.31;5058442;28;1234;-19
2023/06/16 05:07:58;;;;;;;;;;;;;;;26.97;43.18;100194.44;5072780;28;1965;-19
2023/06/16 05:10:24;;;;;;;;;;;;;;;26.92;43.19;100199.59;5072305;28;1058;-18
2023/06/16 05:12:51;;;;;;;;;;;;;;;27.09;42.76;100201.00;5069331;28;1105;-19
2023/06/16 05:15:16;;;;;;;;;;;;;;;27.02;42.80;100197.44;5075206;28;1062;-19
2023/06/16 05:17:42;;;;;;;;;;;;;;;27.01;42.72;100193.88;5067819;28;1214;-18
2023/06/16 05:20:08;;;;;;;;;;;;;;;27.09;42.40;100202.88;5071174;28;1082;-18
2023/06/16 05:22:37;;;;;;;;;;;;;;;27.17;42.24;100194.63;5054272;28;1104;-19
2023/06/16 05:25:03;;;;;;;;;;;;;;;27.12;41.71;100188.97;5058852;28;1063;-19
2023/06/16 05:27:28;;;;;;;;;;;;;;;27.13;41.97;100196.88;5072485;28;1910;-19
2023/06/16 05:29:54;;;;;;;;;;;;;;;27.06;42.17;100195.97;5053555;28;1138;-19
2023/06/16 05:32:21;;;;;;;;;;;;;;;27.16;41.80;100208.31;5053545;28;1345;-19
2023/06/16 05:34:48;;;;;;;;;;;;;;;27.21;42.05;100206.69;5056863;28;1389;-18
2023/06/16 05:37:15;;;;;;;;;;;;;;;27.20;41.94;100214.97;5055103;28;1134;-18
2023/06/16 05:39:47;;;;;;;;;;;;;;;27.09;41.23;100213.66;5072835;28;1338;-19
2023/06/16 05:42:16;;;;;;;;;;;;;;;27.29;40.92;100224.63;5073772;28;1122;-19
2023/06/16 05:44:42;;;;;;;;;;;;;;;27.21;40.19;100233.69;5059795;28;1245;-19
2023/06/16 05:47:08;;;;;;;;;;;;;;;27.33;40.50;100225.88;5065387;28;1918;-18
2023/06/16 05:49:34;;;;;;;;;;;;;;;27.34;40.70;100230.25;5063466;28;1272;-19
2023/06/16 05:52:02;;;;;;;;;;;;;;;27.51;39.75;100229.94;5056646;28;1237;-19
2023/06/16 05:54:28;;;;;;;;;;;;;;;27.35;40.12;100234.63;5068949;28;1261;-19
2023/06/16 05:56:54;;;;;;;;;;;;;;;27.33;39.88;100231.28;5072188;28;1185;-18
2023/06/16 05:59:19;;;;;;;;;;;;;;;27.43;39.25;100238.19;5057347;28;1214;-19
2023/06/16 06:01:45;;;;;;;;;;;;;;;27.38;39.99;100234.22;5057057;28;1308;-19
2023/06/16 06:04:11;;;;;;;;;;;;;;;27.34;39.24;100232.94;5057068;28;1159;-18
2023/06/16 06:06:38;;;;;;;;;;;;;;;27.35;38.88;100237.34;5057659;28;1910;-19
2023/06/16 06:09:04;;;;;;;;;;;;;;;27.19;39.52;100243.88;5075277;28;915;-19
2023/06/16 06:11:30;;;;;;;;;;;;;;;27.43;38.88;100244.44;5057194;28;1149;-19
2023/06/16 06:13:56;;;;;;;;;;;;;;;27.64;38.81;100242.72;5058115;28;1198;-20
2023/06/16 06:16:22;;;;;;;;;;;;;;;27.63;38.97;100249.97;5063185;28;1121;-19
2023/06/16 06:18:48;;;;;;;;;;;;;;;27.55;39.30;100250.13;5066440;28;1206;-19
2023/06/16 06:21:13;;;;;;;;;;;;;;;27.34;40.18;100248.34;5075947;28;1212;-20
2023/06/16 06:23:39;;;;;;;;;;;;;;;27.29;39.97;100251.63;5061271;28;1134;-20
2023/06/16 06:26:05;;;;;;;;;;;;;;;27.32;39.95;100253.09;5060006;28;1973;-20
2023/06/16 06:28:30;;;;;;;;;;;;;;;27.32;39.73;100255.78;5064239;28;1246;-19
2023/06/16 06:30:56;;;;;;;;;;;;;;;27.36;39.83;100252.50;5057343;28;1254;-20
2023/06/16 06:33:22;;;;;;;;;;;;;;;27.37;39.72;100256.88;5061807;28;1430;-20
2023/06/16 06:35:48;;;;;;;;;;;;;;;27.31;39.59;100254.13;5056940;28;1258;-19
2023/06/16 06:38:13;;;;;;;;;;;;;;;27.23;40.33;100250.53;5058874;28;1171;-20
2023/06/16 06:40:40;;;;;;;;;;;;;;;27.34;39.52;100253.75;5057267;28;1374;-20
2023/06/16 06:43:05;;;;;;;;;;;;;;;27.31;39.05;100249.53;5066169;28;1178;-19
2023/06/16 06:45:43;;;;;;;;;;;;;;;27.45;38.58;100255.03;5069636;28;1165;-19
2023/06/16 06:48:08;;;;;;;;;;;;;;;27.46;38.71;100260.25;5066350;28;1902;-19
2023/06/16 06:50:34;;;;;;;;;;;;;;;27.41;38.52;100253.78;5077065;28;1182;-20
2023/06/16 06:53:00;;;;;;;;;;;;;;;27.41;38.99;100264.59;5063993;28;1276;-20
2023/06/16 06:55:25;;;;;;;;;;;;;;;27.43;38.87;100266.03;5058309;28;1142;-20
2023/06/16 06:57:51;;;;;;;;;;;;;;;27.35;38.99;100268.91;5065980;28;1127;-19
2023/06/16 07:00:17;;;;;;;;;;;;;;;27.38;38.88;100261.25;5058017;28;1049;-20
2023/06/16 07:02:42;;;;;;;;;;;;;;;27.36;39.80;100270.59;5067005;28;1232;-19
2023/06/16 07:05:08;;;;;;;;;;;;;;;27.36;39.86;100267.88;5082984;28;1265;-20
2023/06/16 07:07:34;;;;;;;;;;;;;;;27.32;39.73;100274.69;5088972;28;1974;-20
2023/06/16 07:09:59;;;;;;;;;;;;;;;27.40;39.56;100269.16;5080969;28;1117;-19
2023/06/16 07:12:25;;;;;;;;;;;;;;;27.34;38.82;100272.63;5081738;28;1316;-19
2023/06/16 07:14:51;;;;;;;;;;;;;;;27.35;39.98;100261.63;5087556;28;1039;-20
2023/06/16 07:17:16;;;;;;;;;;;;;;;27.38;40.17;100261.25;5083352;28;1070;-19
2023/06/16 07:19:42;;;;;;;;;;;;;;;27.36;39.81;100255.19;5077314;28;1147;-19
2023/06/16 07:22:07;;;;;;;;;;;;;;;27.50;39.34;100253.44;5075819;28;1079;-20
2023/06/16 07:24:33;;;;;;;;;;;;;;;27.39;39.92;100260.19;5079131;28;1262;-20
2023/06/16 07:27:01;;;;;;;;;;;;;;;27.49;39.91;100256.34;5080696;28;1910;-20
2023/06/16 07:29:27;;;;;;;;;;;;;;;27.58;39.52;100251.59;5079146;28;1257;-19
2023/06/16 07:31:53;;;;;;;;;;;;;;;27.57;39.18;100252.63;5082373;28;1218;-20
2023/06/16 07:34:18;;;;;;;;;;;;;;;27.62;38.72;100261.81;5064443;28;1222;-20
2023/06/16 07:36:44;;;;;;;;;;;;;;;27.64;38.81;100264.31;5089309;28;1218;-20
2023/06/16 07:39:10;;;;;;;;;;;;;;;27.72;38.72;100257.94;5086333;28;1216;-19
2023/06/16 07:41:35;;;;;;;;;;;;;;;27.81;38.53;100259.44;5085607;28;1031;-19
2023/06/16 07:44:01;;;;;;;;;;;;;;;27.75;38.77;100260.25;5086521;28;1058;-19
2023/06/16 07:46:26;;;;;;;;;;;;;;;27.74;38.49;100256.69;5085163;28;1971;-20
2023/06/16 07:48:52;;;;;;;;;;;;;;;27.73;39.12;100260.44;5082553;28;1128;-20
2023/06/16 07:51:20;;;;;;;;;;;;;;;27.72;38.24;100266.06;5091858;28;1146;-19
2023/06/16 07:53:45;;;;;;;;;;;;;;;27.71;38.52;100259.00;5091061;28;1077;-19
2023/06/16 07:56:11;;;;;;;;;;;;;;;27.84;38.33;100267.16;5078809;28;1074;-19
2023/06/16 07:58:38;;;;;;;;;;;;;;;27.94;38.31;100271.38;5086391;28;1011;-19
2023/06/16 08:01:04;;;;;;;;;;;;;;;27.87;37.39;100257.81;5077704;28;1110;-20
2023/06/16 08:03:30;;;;;;;;;;;;;;;27.97;38.27;100261.00;5076319;28;1270;-19
2023/06/16 08:05:56;;;;;;;;;;;;;;;27.81;38.29;100254.03;5093865;28;1139;-19
2023/06/16 08:08:22;;;;;;;;;;;;;;;27.84;38.01;100248.22;5064546;28;1965;-19
2023/06/16 08:10:47;;;;;;;;;;;;;;;27.78;37.94;100253.63;5078812;28;1051;-19
2023/06/16 08:13:13;;;;;;;;;;;;;;;27.92;37.64;100244.53;5076555;28;1234;-19
2023/06/16 08:15:38;;;;;;;;;;;;;;;27.82;37.28;100254.88;5075739;28;1226;-19
2023/06/16 08:18:04;;;;;;;;;;;;;;;27.91;37.27;100259.06;5076408;28;1186;-19
2023/06/16 08:20:29;;;;;;;;;;;;;;;27.85;37.65;100254.47;5076749;28;1168;-19
2023/06/16 08:22:55;;;;;;;;;;;;;;;27.61;38.13;100232.31;5075798;28;996;-18
2023/06/16 08:25:20;;;;;;;;;;;;;;;27.82;38.22;100258.44;5075940;28;1214;-19
2023/06/16 08:27:46;;;;;;;;;;;;;;;27.86;38.00;100259.69;5057887;28;1922;-19
2023/06/16 08:30:15;;;;;;;;;;;;;;;27.86;37.64;100253.47;5075980;28;1316;-19
2023/06/16 08:32:41;;;;;;;;;;;;;;;27.92;37.51;100252.66;5070530;28;1266;-19
2023/06/16 08:35:06;;;;;;;;;;;;;;;27.93;37.52;100248.06;5081949;28;1110;-19
2023/06/16 08:37:32;;;;;;;;;;;;;;;27.89;37.76;100241.41;5075949;28;1301;-19
2023/06/16 08:39:58;;;;;;;;;;;;;;;27.86;37.45;100248.88;5077861;28;1206;-19
2023/06/16 08:42:23;;;;;;;;;;;;;;;27.91;37.24;100252.84;5058559;28;1230;-19
2023/06/16 08:44:50;;;;;;;;;;;;;;;27.96;36.86;100247.69;5079901;28;1210;-20
2023/06/16 08:47:16;;;;;;;;;;;;;;;27.97;37.30;100241.22;5082686;28;1985;-19
2023/06/16 08:49:41;;;;;;;;;;;;;;;28.02;36.69;100246.88;5090202;28;1288;-19
2023/06/16 08:52:08;;;;;;;;;;;;;;;27.93;37.28;100239.94;5063538;28;1374;-19
2023/06/16 08:54:38;;;;;;;;;;;;;;;27.94;37.23;100238.94;5082375;28;1128;-19
2023/06/16 08:57:04;;;;;;;;;;;;;;;28.00;37.29;100240.81;5077618;28;1055;-20
2023/06/16 08:59:30;;;;;;;;;;;;;;;27.89;36.92;100234.13;5064688;28;1194;-19
2023/06/16 09:01:57;;;;;;;;;;;;;;;27.90;36.86;100233.09;5074455;28;1047;-19
2023/06/16 09:04:22;;;;;;;;;;;;;;;27.97;36.79;100233.13;5079269;28;1234;-19
2023/06/16 09:06:48;;;;;;;;;;;;;;;28.07;36.82;100238.16;5089544;28;1910;-19
2023/06/16 09:09:14;;;;;;;;;;;;;;;28.00;36.45;100240.81;5079705;28;1150;-19
2023/06/16 09:11:41;;;;;;;;;;;;;;;28.03;36.22;100235.00;5079925;28;1050;-19
2023/06/16 09:14:13;;;;;;;;;;;;;;;27.86;36.54;100238.06;5087844;28;1253;-19
2023/06/16 09:16:39;;;;;;;;;;;;;;;27.83;37.39;100235.75;5092515;28;1379;-19
2023/06/16 09:19:06;;;;;;;;;;;;;;;28.04;36.91;100243.97;5087099;28;1395;-19
2023/06/16 09:21:32;;;;;;;;;;;;;;;28.13;36.77;100233.81;5089644;28;1339;-19
2023/06/16 09:23:57;;;;;;;;;;;;;;;28.13;35.99;100236.53;5090449;28;1296;-20
2023/06/16 09:26:30;;;;;;;;;;;;;;;28.04;35.97;100238.56;5089720;28;1972;-19
2023/06/16 09:28:56;;;;;;;;;;;;;;;28.01;36.50;100238.97;5090842;28;1288;-19
2023/06/16 09:31:22;;;;;;;;;;;;;;;27.99;36.70;100244.56;5084658;28;1256;-19
2023/06/16 09:33:48;;;;;;;;;;;;;;;27.91;36.90;100234.75;5094317;28;1336;-19
2023/06/16 09:36:24;;;;;;;;;;;;;;;28.03;35.63;100245.81;5078573;28;1304;-20
2023/06/16 09:38:50;;;;;;;;;;;;;;;28.04;35.94;100238.56;5063206;28;1096;-19
2023/06/16 09:41:16;;;;;;;;;;;;;;;27.98;36.73;100243.72;5081632;28;1138;-19
2023/06/16 09:43:41;;;;;;;;;;;;;;;27.81;36.99;100242.41;5096872;28;1073;-19
2023/06/16 09:46:16;;;;;;;;;;;;;;;28.03;36.09;100239.59;5090222;28;1906;-19
2023/06/16 09:48:46;;;;;;;;;;;;;;;28.06;35.56;100241.91;5081936;28;1240;-19
2023/06/16 09:51:14;;;;;;;;;;;;;;;27.98;36.24;100240.19;5099077;28;1030;-20
2023/06/16 09:53:41;;;;;;;;;;;;;;;28.10;35.52;100232.34;5093129;28;1039;-20
2023/06/16 09:56:06;;;;;;;;;;;;;;;28.04;35.56;100235.84;5099266;28;1075;-19
2023/06/16 09:58:32;;;;;;;;;;;;;;;28.01;35.83;100228.97;5078235;28;1038;-19
2023/06/16 10:00:58;;;;;;;;;;;;;;;28.11;35.62;100234.03;5082478;28;1146;-20
2023/06/16 10:03:24;;;;;;;;;;;;;;;28.06;35.73;100231.91;5097600;28;1100;-19
2023/06/16 10:05:51;;;;;;;;;;;;;;;28.39;36.48;100238.50;5076748;28;1194;-20
2023/06/16 10:08:17;;;;;;;;;;;;;;;28.36;36.55;100244.31;5080791;28;1909;-20
2023/06/16 10:10:43;;;;;;;;;;;;;;;28.03;37.92;100237.72;5094271;28;1125;-21
2023/06/16 10:13:08;;;;;;;;;;;;;;;27.85;37.97;100233.69;5091077;28;1461;-19
2023/06/16 10:15:35;;;;;;;;;;;;;;;27.96;36.89;100237.69;5096121;28;1225;-19
2023/06/16 10:18:03;;;;;;;;;;;;;;;28.08;36.36;100229.00;5086707;28;1070;-20
2023/06/16 10:20:30;;;;;;;;;;;;;;;28.08;37.28;100232.53;5065398;28;1253;-18
2023/06/16 10:22:56;;;;;;;;;;;;;;;28.26;36.58;100239.25;5089832;28;906;-19
2023/06/16 10:25:21;;;;;;;;;;;;;;;28.43;37.04;100236.19;5080452;28;1151;-19
2023/06/16 10:27:47;;;;;;;;;;;;;;;28.42;36.56;100239.94;5080694;28;1989;-19
2023/06/16 10:30:16;;;;;;;;;;;;;;;28.33;37.00;100242.84;5097882;28;1027;-19
2023/06/16 10:32:52;;;;;;;;;;;;;;;28.27;36.10;100237.38;5074753;28;1225;-19
2023/06/16 10:35:18;;;;;;;;;;;;;;;28.11;36.89;100245.66;5084534;28;862;-19
2023/06/16 10:37:48;;;;;;;;;;;;;;;28.09;35.69;100241.50;5084303;28;1067;-18
2023/06/16 10:40:14;;;;;;;;;;;;;;;28.29;35.32;100246.97;5097190;28;1070;-19
2023/06/16 10:42:39;;;;;;;;;;;;;;;28.35;36.38;100248.03;5092309;28;1205;-18
2023/06/16 10:45:27;;;;;;;;;;;;;;;28.47;36.21;100254.53;5091833;28;1145;-19
2023/06/16 10:47:56;;;;;;;;;;;;;;;28.23;36.24;100259.44;5088449;28;1985;-18
2023/06/16 10:50:28;;;;;;;;;;;;;;;28.56;36.00;100259.78;5079507;28;1133;-19
2023/06/16 10:52:54;;;;;;;;;;;;;;;28.44;35.38;100263.06;5090651;28;1383;-19
2023/06/16 10:55:33;;;;;;;;;;;;;;;28.35;35.70;100266.97;5089031;28;1269;-19
2023/06/16 10:58:18;;;;;;;;;;;;;;;28.34;35.78;100260.72;5089559;28;1229;-19
2023/06/16 11:00:57;;;;;;;;;;;;;;;28.23;36.52;100259.44;5093808;28;1089;-19
2023/06/16 11:03:23;;;;;;;;;;;;;;;28.51;36.25;100270.38;5087609;28;1109;-18
2023/06/16 11:05:49;;;;;;;;;;;;;;;28.77;35.55;100271.44;5089981;28;1145;-18
2023/06/16 11:08:15;;;;;;;;;;;;;;;28.71;35.46;100257.69;5063179;28;1984;-18
2023/06/16 11:10:48;;;;;;;;;;;;;;;28.71;36.71;100265.81;5078046;28;1171;-18
2023/06/16 11:13:13;;;;;;;;;;;;;;;28.58;37.29;100261.22;5093815;28;1066;-18
2023/06/16 11:15:40;;;;;;;;;;;;;;;28.84;36.16;100245.22;5068137;28;1368;-18
2023/06/16 11:18:06;;;;;;;;;;;;;;;28.64;37.12;100262.28;5093076;28;1130;-18
2023/06/16 11:20:32;;;;;;;;;;;;;;;28.81;36.96;100254.59;5086140;28;1382;-19
2023/06/16 11:22:57;;;;;;;;;;;;;;;28.69;36.84;100267.06;5073277;28;1344;-18
2023/06/16 11:25:22;;;;;;;;;;;;;;;28.83;36.88;100251.66;5092285;28;1387;-19
2023/06/16 11:27:48;;;;;;;;;;;;;;;28.73;37.45;100268.31;5085530;28;1983;-19
2023/06/16 11:30:14;;;;;;;;;;;;;;;28.78;37.50;100263.13;5089470;28;1336;-19
2023/06/16 11:32:40;;;;;;;;;;;;;;;28.76;37.86;100259.78;5068896;28;1340;-18
2023/06/16 11:35:05;;;;;;;;;;;;;;;28.55;38.07;100260.78;5075636;28;1514;-18
2023/06/16 11:37:50;;;;;;;;;;;;;;;28.73;38.11;100255.63;5084858;28;1340;-18
2023/06/16 11:40:26;;;;;;;;;;;;;;;28.59;38.74;100245.81;5085247;28;1256;-18
2023/06/16 11:42:58;;;;;;;;;;;;;;;28.82;38.11;100250.00;5090724;28;1518;-19
2023/06/16 11:45:24;;;;;;;;;;;;;;;28.82;38.12;100242.72;5076855;28;1026;-18
2023/06/16 11:47:50;;;;;;;;;;;;;;;29.33;37.38;100253.16;5077458;28;1922;-18
2023/06/16 11:50:16;;;;;;;;;;;;;;;29.02;38.53;100243.81;5085086;28;1177;-18
2023/06/16 11:52:42;;;;;;;;;;;;;;;28.83;39.40;100233.56;5077073;28;1242;-18
2023/06/16 11:55:08;;;;;;;;;;;;;;;28.96;38.65;100242.75;5076837;28;1178;-18
2023/06/16 11:57:39;;;;;;;;;;;;;;;29.03;39.02;100230.06;5082165;28;1107;-18
2023/06/16 12:00:07;;;;;;;;;;;;;;;29.07;38.25;100235.88;5083993;28;885;-18
2023/06/16 12:02:32;;;;;;;;;;;;;;;29.08;38.67;100229.41;5079317;28;1190;-18
2023/06/16 12:04:58;;;;;;;;;;;;;;;29.05;37.75;100229.84;5081455;28;1352;-18
2023/06/16 12:07:23;;;;;;;;;;;;;;;29.35;37.32;100218.56;5077276;28;1971;-18
2023/06/16 12:09:55;;;;;;;;;;;;;;;29.29;37.28;100219.41;5069369;28;1317;-18
2023/06/16 12:12:21;;;;;;;;;;;;;;;29.05;37.85;100210.88;5092007;28;1379;-17
2023/06/16 12:14:46;;;;;;;;;;;;;;;29.22;37.96;100211.28;5091019;28;1422;-18
2023/06/16 12:17:12;;;;;;;;;;;;;;;29.14;37.82;100196.09;5076763;28;1355;-18
2023/06/16 12:19:38;;;;;;;;;;;;;;;29.10;37.64;100202.97;5089501;28;1194;-18
2023/06/16 12:22:04;;;;;;;;;;;;;;;29.08;37.00;100196.94;5087705;28;1350;-17
2023/06/16 12:24:30;;;;;;;;;;;;;;;29.44;36.76;100190.22;5084069;28;1183;-18
2023/06/16 12:26:55;;;;;;;;;;;;;;;29.76;35.88;100186.78;5087807;28;1929;-18
2023/06/16 12:29:25;;;;;;;;;;;;;;;29.84;35.31;100188.44;5090124;28;1344;-18
2023/06/16 12:31:51;;;;;;;;;;;;;;;29.37;35.45;100177.72;5068154;28;1265;-18
2023/06/16 12:34:26;;;;;;;;;;;;;;;29.51;34.10;100178.50;5091499;28;1268;-18
2023/06/16 12:36:52;;;;;;;;;;;;;;;29.19;36.53;100180.06;5082314;28;1173;-18
2023/06/16 12:39:18;;;;;;;;;;;;;;;28.71;37.10;100171.09;5091185;28;1222;-18
2023/06/16 12:42:02;;;;;;;;;;;;;;;28.82;36.30;100177.78;5096474;28;1173;-18
2023/06/16 12:44:55;;;;;;;;;;;;;;;28.72;36.80;100174.63;5093493;28;1197;-18
2023/06/16 12:47:21;;;;;;;;;;;;;;;28.26;37.78;100163.53;5078985;28;1950;-19